Time;durP1;ratioP1;P1;durP2;ratioP2;P2;SDS_P1;SDS_P2;PMS_P1;PMS_P2;Temp;Humidity;BMP_temperature;BMP_pressure;BME280_temperature;BME280_humidity;BME280_pressure;Samples;Min_cycle;Max_cycle;Signal;HPM_P1;HPM_P2
2022/10/29 00:00:59;;;;;;;;;;;20.40;99.90;;;;;;5031078;28;20675;-60
2022/10/29 00:03:26;;;;;;;;;;;20.40;99.90;;;;;;5030464;28;19932;-61
2022/10/29 00:05:57;;;;;;;;;;;20.30;99.90;;;;;;5030066;28;19925;-62
2022/10/29 00:08:24;;;;;;;;;;;20.30;99.90;;;;;;5033287;28;19924;-62
2022/10/29 00:10:51;;;;;;;;;;;20.30;99.90;;;;;;5040641;28;19932;-60
2022/10/29 00:13:19;;;;;;;;;;;20.30;99.90;;;;;;5029783;28;19928;-60
2022/10/29 00:15:46;;;;;;;;;;;20.30;99.90;;;;;;5032194;28;20316;-61
2022/10/29 00:18:13;;;;;;;;;;;20.30;99.90;;;;;;5031313;28;19936;-59
2022/10/29 00:20:40;;;;;;;;;;;20.30;99.90;;;;;;5032296;28;20411;-61
2022/10/29 00:23:07;;;;;;;;;;;20.30;99.90;;;;;;5037168;28;19925;-61
2022/10/29 00:25:34;;;;;;;;;;;20.30;99.90;;;;;;5033199;28;19921;-61
2022/10/29 00:28:01;;;;;;;;;;;20.30;99.90;;;;;;5011546;28;19925;-61
2022/10/29 00:30:28;;;;;;;;;;;20.30;99.90;;;;;;5029361;28;20313;-59
2022/10/29 00:32:55;;;;;;;;;;;20.30;99.90;;;;;;5029945;28;19921;-62
2022/10/29 00:35:22;;;;;;;;;;;20.30;99.90;;;;;;5029865;28;19925;-61
2022/10/29 00:37:49;;;;;;;;;;;20.30;99.90;;;;;;5029481;28;19921;-62
2022/10/29 00:40:17;;;;;;;;;;;20.30;99.90;;;;;;5031675;28;19925;-61
2022/10/29 00:42:44;;;;;;;;;;;20.30;99.90;;;;;;5030152;28;19921;-60
2022/10/29 00:45:17;;;;;;;;;;;20.30;99.90;;;;;;5032848;28;19925;-60
2022/10/29 00:47:45;;;;;;;;;;;20.20;99.90;;;;;;5010334;28;19932;-62
2022/10/29 00:50:13;;;;;;;;;;;20.30;99.90;;;;;;5037060;28;19925;-62
2022/10/29 00:52:42;;;;;;;;;;;20.30;99.90;;;;;;5027549;28;20419;-62
2022/10/29 00:55:11;;;;;;;;;;;20.30;99.90;;;;;;5036840;28;19924;-62
2022/10/29 00:57:40;;;;;;;;;;;20.30;99.90;;;;;;5028936;28;19924;-61
2022/10/29 01:00:07;;;;;;;;;;;20.20;99.90;;;;;;5029638;28;20309;-62
2022/10/29 01:02:36;;;;;;;;;;;20.30;99.90;;;;;;5018122;28;20415;-62
2022/10/29 01:05:04;;;;;;;;;;;20.20;99.90;;;;;;5030855;28;19933;-61
2022/10/29 01:07:31;;;;;;;;;;;20.30;99.90;;;;;;5028694;28;19924;-61
2022/10/29 01:09:58;;;;;;;;;;;20.20;99.90;;;;;;5029192;28;19924;-61
2022/10/29 01:12:28;;;;;;;;;;;20.20;99.90;;;;;;5029838;28;19925;-60
2022/10/29 01:15:03;;;;;;;;;;;20.20;99.90;;;;;;5029236;28;19928;-61
2022/10/29 01:18:02;;;;;;;;;;;20.20;99.90;;;;;;5030180;28;19928;-61
2022/10/29 01:20:38;;;;;;;;;;;20.20;99.90;;;;;;4996022;28;19936;-61
2022/10/29 01:23:11;;;;;;;;;;;20.20;99.90;;;;;;5031850;28;19924;-62
2022/10/29 01:25:56;;;;;;;;;;;20.20;99.90;;;;;;5027012;28;20411;-61
2022/10/29 01:28:34;;;;;;;;;;;20.20;99.90;;;;;;5027023;28;19925;-61
2022/10/29 01:31:10;;;;;;;;;;;20.20;99.90;;;;;;5031416;28;20475;-60
2022/10/29 01:33:44;;;;;;;;;;;20.20;99.90;;;;;;5021712;28;19991;-60
2022/10/29 01:36:11;;;;;;;;;;;20.20;99.90;;;;;;5032882;28;20431;-60
2022/10/29 01:38:40;;;;;;;;;;;20.20;99.90;;;;;;5028195;28;19921;-61
2022/10/29 01:41:13;;;;;;;;;;;20.20;99.90;;;;;;5028942;28;19925;-56
2022/10/29 01:43:46;;;;;;;;;;;20.20;99.90;;;;;;5026568;28;20304;-57
2022/10/29 01:46:22;;;;;;;;;;;20.10;99.90;;;;;;5029332;28;19925;-59
2022/10/29 01:48:51;;;;;;;;;;;20.20;99.90;;;;;;5028959;28;20290;-65
2022/10/29 01:51:24;;;;;;;;;;;20.10;99.90;;;;;;5029695;28;19931;-64
2022/10/29 01:53:51;;;;;;;;;;;20.10;99.90;;;;;;5026810;28;20391;-59
2022/10/29 01:56:18;;;;;;;;;;;20.10;99.90;;;;;;5028765;28;19925;-62
2022/10/29 01:58:47;;;;;;;;;;;20.20;99.90;;;;;;5027179;28;19925;-60
2022/10/29 02:01:30;;;;;;;;;;;20.10;99.90;;;;;;5028851;28;19924;-61
2022/10/29 02:04:04;;;;;;;;;;;20.10;99.90;;;;;;5027411;28;19925;-61
2022/10/29 02:06:40;;;;;;;;;;;20.10;99.90;;;;;;5029375;28;19932;-62
2022/10/29 02:09:26;;;;;;;;;;;20.10;99.90;;;;;;5029191;28;19932;-62
2022/10/29 02:11:53;;;;;;;;;;;20.10;99.90;;;;;;5027349;28;19925;-61
2022/10/29 02:14:24;;;;;;;;;;;20.20;99.90;;;;;;5034859;28;19921;-61
2022/10/29 02:16:52;;;;;;;;;;;20.10;99.90;;;;;;5010104;28;19925;-60
2022/10/29 02:19:19;;;;;;;;;;;20.10;99.90;;;;;;5027103;28;19921;-62
2022/10/29 02:21:46;;;;;;;;;;;20.10;99.90;;;;;;5026199;28;19925;-61
2022/10/29 02:24:13;;;;;;;;;;;20.10;99.90;;;;;;5030309;28;19925;-61
2022/10/29 02:26:40;;;;;;;;;;;20.10;99.90;;;;;;5025728;28;19921;-61
2022/10/29 02:29:07;;;;;;;;;;;20.10;99.90;;;;;;5028538;28;20050;-62
2022/10/29 02:31:35;;;;;;;;;;;20.10;99.90;;;;;;5022458;28;19925;-60
2022/10/29 02:34:02;;;;;;;;;;;20.10;99.90;;;;;;5028807;28;19944;-61
2022/10/29 02:36:29;;;;;;;;;;;20.10;99.90;;;;;;5027804;28;19921;-61
2022/10/29 02:38:56;;;;;;;;;;;20.10;99.90;;;;;;5026561;28;19932;-60
2022/10/29 02:41:23;;;;;;;;;;;20.10;99.90;;;;;;5029359;28;20008;-61
2022/10/29 02:43:50;;;;;;;;;;;20.10;99.90;;;;;;5027855;28;19932;-62
2022/10/29 02:46:18;;;;;;;;;;;20.10;99.90;;;;;;5026709;28;19921;-61
2022/10/29 02:48:45;;;;;;;;;;;20.10;99.90;;;;;;5032990;28;19932;-62
2022/10/29 02:51:13;;;;;;;;;;;20.10;99.90;;;;;;5029235;28;19928;-62
2022/10/29 02:53:40;;;;;;;;;;;20.10;99.90;;;;;;5025270;28;19928;-60
2022/10/29 02:56:07;;;;;;;;;;;20.10;99.90;;;;;;5029141;28;19925;-61
2022/10/29 02:58:34;;;;;;;;;;;20.10;99.90;;;;;;5009410;28;20470;-63
2022/10/29 03:01:02;;;;;;;;;;;20.10;99.90;;;;;;5027963;28;19932;-61
2022/10/29 03:03:29;;;;;;;;;;;20.10;99.90;;;;;;5010158;28;19921;-60
2022/10/29 03:05:56;;;;;;;;;;;20.10;99.90;;;;;;5022381;28;19932;-64
2022/10/29 03:08:23;;;;;;;;;;;20.10;99.90;;;;;;5027780;28;19925;-62
2022/10/29 03:10:50;;;;;;;;;;;20.00;99.90;;;;;;5027862;28;19928;-62
2022/10/29 03:13:17;;;;;;;;;;;20.00;99.90;;;;;;5030664;28;19927;-61
2022/10/29 03:15:45;;;;;;;;;;;20.00;99.90;;;;;;5029813;28;19925;-60
2022/10/29 03:18:12;;;;;;;;;;;20.00;99.90;;;;;;5028206;28;19931;-61
2022/10/29 03:20:39;;;;;;;;;;;20.00;99.90;;;;;;5027952;28;19928;-59
2022/10/29 03:23:06;;;;;;;;;;;20.00;99.90;;;;;;5026950;28;20297;-61
2022/10/29 03:25:33;;;;;;;;;;;20.00;99.90;;;;;;5025602;28;19924;-60
2022/10/29 03:28:00;;;;;;;;;;;20.10;99.90;;;;;;5027149;28;20570;-61
2022/10/29 03:30:27;;;;;;;;;;;20.00;99.90;;;;;;5031876;28;19925;-61
2022/10/29 03:32:54;;;;;;;;;;;20.00;99.90;;;;;;5029592;28;19931;-60
2022/10/29 03:35:21;;;;;;;;;;;20.00;99.90;;;;;;5032583;28;19931;-59
2022/10/29 03:37:49;;;;;;;;;;;20.00;99.90;;;;;;5024846;28;19925;-61
2022/10/29 03:40:17;;;;;;;;;;;20.00;99.90;;;;;;5031525;28;20304;-61
2022/10/29 03:42:44;;;;;;;;;;;20.00;99.90;;;;;;5030662;28;19925;-61
2022/10/29 03:45:11;;;;;;;;;;;20.00;99.90;;;;;;5033220;28;19932;-60
2022/10/29 03:47:39;;;;;;;;;;;20.00;99.90;;;;;;5035238;28;19921;-60
2022/10/29 03:50:06;;;;;;;;;;;20.00;99.90;;;;;;5027350;28;20451;-60
2022/10/29 03:52:33;;;;;;;;;;;20.00;99.90;;;;;;5030140;28;19925;-61
2022/10/29 03:55:00;;;;;;;;;;;20.00;99.90;;;;;;5029676;28;19925;-61
2022/10/29 03:57:27;;;;;;;;;;;20.00;99.90;;;;;;5013028;28;19929;-62
2022/10/29 03:59:55;;;;;;;;;;;20.00;99.90;;;;;;5037626;28;19937;-62
2022/10/29 04:02:22;;;;;;;;;;;20.00;99.90;;;;;;5031431;28;19921;-61
2022/10/29 04:04:49;;;;;;;;;;;20.00;99.90;;;;;;5030937;28;20284;-63
2022/10/29 04:07:16;;;;;;;;;;;20.10;99.90;;;;;;5026738;28;19932;-59
2022/10/29 04:09:43;;;;;;;;;;;20.10;99.90;;;;;;5030724;28;19921;-61
2022/10/29 04:12:10;;;;;;;;;;;20.10;99.90;;;;;;5014610;28;19940;-61
2022/10/29 04:14:37;;;;;;;;;;;20.10;99.90;;;;;;5032325;28;19931;-60
2022/10/29 04:17:11;;;;;;;;;;;20.20;99.90;;;;;;5030258;28;20096;-60
2022/10/29 04:19:39;;;;;;;;;;;20.10;99.90;;;;;;5036391;28;19925;-60
2022/10/29 04:22:06;;;;;;;;;;;20.10;99.90;;;;;;5031242;28;19925;-60
2022/10/29 04:24:53;;;;;;;;;;;20.10;99.90;;;;;;5030865;28;19936;-59
2022/10/29 04:27:40;;;;;;;;;;;20.10;99.90;;;;;;5030477;28;19921;-69
2022/10/29 04:30:27;;;;;;;;;;;20.10;99.90;;;;;;5029205;28;19932;-59
2022/10/29 04:32:58;;;;;;;;;;;20.10;99.90;;;;;;5027897;28;20277;-61
2022/10/29 04:35:26;;;;;;;;;;;20.10;99.90;;;;;;5029638;28;20415;-60
2022/10/29 04:37:56;;;;;;;;;;;20.10;99.90;;;;;;5031557;28;19996;-62
2022/10/29 04:40:23;;;;;;;;;;;20.10;99.90;;;;;;5029929;28;19936;-61
2022/10/29 04:42:50;;;;;;;;;;;20.10;99.90;;;;;;5028400;28;19925;-61
2022/10/29 04:45:18;;;;;;;;;;;20.10;99.90;;;;;;5030801;28;19932;-61
2022/10/29 04:47:45;;;;;;;;;;;20.10;99.90;;;;;;5034802;28;20464;-61
2022/10/29 04:50:12;;;;;;;;;;;20.10;99.90;;;;;;5030118;28;19944;-60
2022/10/29 04:52:39;;;;;;;;;;;20.10;99.90;;;;;;5030594;28;19925;-59
2022/10/29 04:55:06;;;;;;;;;;;20.10;99.90;;;;;;5036500;28;19925;-60
2022/10/29 04:57:33;;;;;;;;;;;20.10;99.90;;;;;;5030125;28;20304;-61
2022/10/29 05:00:00;;;;;;;;;;;20.10;99.90;;;;;;5034265;28;19925;-61
2022/10/29 05:02:28;;;;;;;;;;;20.10;99.90;;;;;;5029844;28;19936;-61
2022/10/29 05:04:55;;;;;;;;;;;20.10;99.90;;;;;;5030742;28;20559;-60
2022/10/29 05:07:22;;;;;;;;;;;20.10;99.90;;;;;;5029347;28;19924;-61
2022/10/29 05:09:49;;;;;;;;;;;20.10;99.90;;;;;;5020149;28;20388;-62
2022/10/29 05:12:16;;;;;;;;;;;20.10;99.90;;;;;;5037899;28;19924;-60
2022/10/29 05:14:43;;;;;;;;;;;20.20;99.90;;;;;;5036133;28;20293;-63
2022/10/29 05:17:10;;;;;;;;;;;20.30;99.90;;;;;;5033760;28;20301;-61
2022/10/29 05:19:37;;;;;;;;;;;20.40;99.90;;;;;;5030965;28;19921;-62
2022/10/29 05:22:04;;;;;;;;;;;20.50;99.90;;;;;;5039301;28;19921;-61
2022/10/29 05:24:31;;;;;;;;;;;20.60;99.90;;;;;;5014019;28;19921;-62
2022/10/29 05:26:58;;;;;;;;;;;20.60;99.90;;;;;;5034009;28;20403;-62
2022/10/29 05:29:25;;;;;;;;;;;20.70;99.90;;;;;;5029036;28;20198;-63
2022/10/29 05:31:53;;;;;;;;;;;20.70;99.90;;;;;;5023269;28;19928;-62
2022/10/29 05:34:20;;;;;;;;;;;20.70;99.90;;;;;;5027675;28;20396;-61
2022/10/29 05:36:47;;;;;;;;;;;20.80;99.90;;;;;;5028411;28;19928;-63
2022/10/29 05:39:14;;;;;;;;;;;20.80;99.90;;;;;;5022621;28;20272;-62
2022/10/29 05:41:41;;;;;;;;;;;20.80;99.90;;;;;;5028026;28;19925;-60
2022/10/29 05:44:08;;;;;;;;;;;20.80;99.90;;;;;;5028431;28;20128;-61
2022/10/29 05:46:35;;;;;;;;;;;20.80;99.90;;;;;;5031572;28;19925;-60
2022/10/29 05:49:03;;;;;;;;;;;20.70;99.90;;;;;;5035488;28;19925;-63
2022/10/29 05:51:30;;;;;;;;;;;20.70;99.90;;;;;;5027233;28;19925;-60
2022/10/29 05:53:57;;;;;;;;;;;20.80;99.90;;;;;;5027796;28;19925;-60
2022/10/29 05:56:24;;;;;;;;;;;20.70;99.90;;;;;;5010694;28;19934;-60
2022/10/29 05:58:52;;;;;;;;;;;20.40;99.90;;;;;;5028454;28;20328;-61
2022/10/29 06:01:19;;;;;;;;;;;19.90;99.90;;;;;;5028949;28;19920;-63
2022/10/29 06:03:46;;;;;;;;;;;19.80;99.90;;;;;;5022591;28;20308;-60
2022/10/29 06:06:13;;;;;;;;;;;19.90;99.90;;;;;;5013990;28;19921;-57
2022/10/29 06:08:41;;;;;;;;;;;20.10;99.90;;;;;;5027570;28;19921;-60
2022/10/29 06:11:08;;;;;;;;;;;20.30;99.90;;;;;;5027077;28;19925;-61
2022/10/29 06:13:35;;;;;;;;;;;20.40;99.90;;;;;;5026813;28;19928;-61
2022/10/29 06:16:02;;;;;;;;;;;20.40;99.90;;;;;;5014210;28;19932;-64
2022/10/29 06:18:29;;;;;;;;;;;20.40;99.90;;;;;;5027148;28;19921;-62
2022/10/29 06:20:56;;;;;;;;;;;20.50;99.90;;;;;;5013209;28;19929;-59
2022/10/29 06:23:23;;;;;;;;;;;20.50;99.90;;;;;;5033168;28;19921;-61
2022/10/29 06:25:50;;;;;;;;;;;20.50;99.90;;;;;;5028347;28;19927;-59
2022/10/29 06:28:18;;;;;;;;;;;20.50;99.90;;;;;;5029924;28;19935;-62
2022/10/29 06:30:46;;;;;;;;;;;20.50;99.90;;;;;;5027160;28;19932;-64
2022/10/29 06:33:14;;;;;;;;;;;20.50;99.90;;;;;;5023658;28;20324;-60
2022/10/29 06:35:41;;;;;;;;;;;20.60;99.90;;;;;;5039836;28;19932;-65
2022/10/29 06:38:09;;;;;;;;;;;20.60;99.90;;;;;;5030474;28;19936;-58
2022/10/29 06:40:39;;;;;;;;;;;20.60;99.90;;;;;;5030598;28;19929;-62
2022/10/29 06:43:07;;;;;;;;;;;20.80;99.90;;;;;;5008154;28;20685;-66
2022/10/29 06:45:34;;;;;;;;;;;20.90;99.90;;;;;;5028565;28;19921;-66
2022/10/29 06:48:01;;;;;;;;;;;21.00;99.90;;;;;;5028940;28;20293;-66
2022/10/29 06:50:28;;;;;;;;;;;21.00;99.90;;;;;;5028365;28;19929;-67
2022/10/29 06:52:59;;;;;;;;;;;21.00;99.90;;;;;;5030607;28;19932;-67
2022/10/29 06:55:27;;;;;;;;;;;21.00;99.90;;;;;;5031621;28;19936;-65
2022/10/29 06:57:57;;;;;;;;;;;21.10;99.90;;;;;;5027746;28;19925;-66
2022/10/29 07:00:24;;;;;;;;;;;21.00;99.90;;;;;;5028542;28;19931;-68
2022/10/29 07:02:51;;;;;;;;;;;21.00;99.90;;;;;;5033125;28;19928;-66
2022/10/29 07:05:18;;;;;;;;;;;21.00;99.90;;;;;;5036404;28;20427;-69
2022/10/29 07:07:45;;;;;;;;;;;21.00;99.90;;;;;;5012938;28;19921;-63
2022/10/29 07:10:12;;;;;;;;;;;20.90;99.90;;;;;;5006619;28;19925;-65
2022/10/29 07:12:48;;;;;;;;;;;21.00;99.90;;;;;;5023996;28;20388;-66
2022/10/29 07:15:15;;;;;;;;;;;21.00;99.90;;;;;;5030532;28;20316;-66
2022/10/29 07:17:42;;;;;;;;;;;20.90;99.90;;;;;;5037741;28;19924;-66
2022/10/29 07:20:09;;;;;;;;;;;20.90;99.90;;;;;;5033174;28;19925;-68
2022/10/29 07:22:37;;;;;;;;;;;20.90;99.90;;;;;;5011986;28;20008;-64
2022/10/29 07:25:04;;;;;;;;;;;20.90;99.90;;;;;;5028935;28;19921;-62
2022/10/29 07:27:31;;;;;;;;;;;20.90;99.90;;;;;;5028034;28;19925;-65
2022/10/29 07:29:59;;;;;;;;;;;20.90;99.90;;;;;;5034110;28;19928;-64
2022/10/29 07:32:26;;;;;;;;;;;20.90;99.90;;;;;;5030285;28;19932;-63
2022/10/29 07:34:53;;;;;;;;;;;20.80;99.90;;;;;;5022301;28;19932;-64
2022/10/29 07:37:20;;;;;;;;;;;20.80;99.90;;;;;;5024250;28;19929;-64
2022/10/29 07:39:47;;;;;;;;;;;20.80;99.90;;;;;;5027557;28;19933;-63
2022/10/29 07:42:14;;;;;;;;;;;20.70;99.90;;;;;;5029732;28;19932;-65
2022/10/29 07:44:41;;;;;;;;;;;20.70;99.90;;;;;;5027297;28;19926;-64
2022/10/29 07:47:08;;;;;;;;;;;20.60;99.90;;;;;;5028987;28;19959;-62
2022/10/29 07:49:35;;;;;;;;;;;20.70;99.90;;;;;;5030691;28;19921;-60
2022/10/29 07:52:03;;;;;;;;;;;20.60;99.90;;;;;;5025108;28;19924;-65
2022/10/29 07:54:30;;;;;;;;;;;20.60;99.90;;;;;;5013059;28;20567;-67
2022/10/29 07:56:57;;;;;;;;;;;20.60;99.90;;;;;;5025694;28;19932;-63
2022/10/29 07:59:24;;;;;;;;;;;20.60;99.90;;;;;;5026225;28;19947;-62
2022/10/29 08:01:51;;;;;;;;;;;20.70;99.90;;;;;;5024891;28;20459;-66
2022/10/29 08:04:18;;;;;;;;;;;20.70;99.90;;;;;;5018371;28;19936;-63
2022/10/29 08:06:46;;;;;;;;;;;20.60;99.90;;;;;;5010064;28;19925;-65
2022/10/29 08:09:13;;;;;;;;;;;20.60;99.90;;;;;;5027197;28;19924;-65
2022/10/29 08:11:40;;;;;;;;;;;20.60;99.90;;;;;;5030671;28;19928;-64
2022/10/29 08:14:08;;;;;;;;;;;20.50;99.90;;;;;;5016401;28;19928;-64
2022/10/29 08:16:35;;;;;;;;;;;20.50;99.90;;;;;;5023589;28;19936;-62
2022/10/29 08:19:02;;;;;;;;;;;20.50;99.90;;;;;;5032581;28;19921;-63
2022/10/29 08:21:29;;;;;;;;;;;20.50;99.90;;;;;;5017290;28;19935;-63
2022/10/29 08:23:56;;;;;;;;;;;20.40;99.90;;;;;;5017543;28;20389;-61
2022/10/29 08:26:23;;;;;;;;;;;20.40;99.90;;;;;;5024896;28;20035;-61
2022/10/29 08:28:50;;;;;;;;;;;20.50;99.90;;;;;;5023661;28;19921;-63
2022/10/29 08:31:18;;;;;;;;;;;20.40;99.90;;;;;;5031437;28;20316;-62
2022/10/29 08:33:48;;;;;;;;;;;20.50;99.90;;;;;;5029807;28;20415;-61
2022/10/29 08:36:15;;;;;;;;;;;20.50;99.90;;;;;;5027841;28;19932;-62
2022/10/29 08:38:42;;;;;;;;;;;20.50;99.90;;;;;;5029542;28;19931;-64
2022/10/29 08:41:27;;;;;;;;;;;20.40;99.90;;;;;;5028117;28;19925;-62
2022/10/29 08:44:24;;;;;;;;;;;20.50;99.90;;;;;;5027382;28;19925;-61
2022/10/29 08:46:55;;;;;;;;;;;20.50;99.90;;;;;;5006587;28;20331;-61
2022/10/29 08:49:22;;;;;;;;;;;20.50;99.90;;;;;;5031901;28;19930;-63
2022/10/29 08:52:12;;;;;;;;;;;20.50;99.90;;;;;;5028235;28;19929;-63
2022/10/29 08:54:40;;;;;;;;;;;20.50;99.90;;;;;;5018469;28;19932;-59
2022/10/29 08:57:13;;;;;;;;;;;20.50;99.90;;;;;;5019811;28;19940;-58
2022/10/29 08:59:48;;;;;;;;;;;20.50;99.90;;;;;;5009318;28;19921;-62
2022/10/29 09:02:16;;;;;;;;;;;20.40;99.90;;;;;;5012508;28;19925;-61
2022/10/29 09:04:43;;;;;;;;;;;20.40;99.90;;;;;;5030671;28;20039;-62
2022/10/29 09:07:26;;;;;;;;;;;20.40;99.90;;;;;;5024990;28;19932;-61
2022/10/29 09:10:32;;;;;;;;;;;20.40;99.90;;;;;;4994735;28;19928;-62
2022/10/29 09:13:20;;;;;;;;;;;20.40;99.90;;;;;;4948634;28;19942;-60
2022/10/29 09:15:47;;;;;;;;;;;20.80;99.90;;;;;;4948524;28;19926;-63
2022/10/29 09:18:25;;;;;;;;;;;20.80;99.90;;;;;;4946351;28;20310;-64
2022/10/29 09:21:00;;;;;;;;;;;20.80;99.90;;;;;;4954393;28;19925;-61
2022/10/29 09:23:33;;;;;;;;;;;20.70;99.90;;;;;;4963690;28;19930;-66
2022/10/29 09:26:07;;;;;;;;;;;20.60;99.90;;;;;;4958700;28;19941;-63
2022/10/29 09:28:52;;;;;;;;;;;20.60;99.90;;;;;;4957820;28;19930;-60
2022/10/29 09:31:22;;;;;;;;;;;20.60;99.90;;;;;;4969494;28;19990;-62
2022/10/29 09:33:51;;;;;;;;;;;20.50;99.90;;;;;;4965912;28;19948;-65
2022/10/29 09:36:22;;;;;;;;;;;20.50;99.90;;;;;;4967847;28;19949;-63
2022/10/29 09:39:03;;;;;;;;;;;20.50;99.90;;;;;;4965356;28;19929;-63
2022/10/29 09:41:31;;;;;;;;;;;20.50;99.90;;;;;;4968311;28;19926;-64
2022/10/29 09:44:05;;;;;;;;;;;20.50;99.90;;;;;;4996784;28;19936;-65
2022/10/29 09:46:44;;;;;;;;;;;20.50;99.90;;;;;;5028995;28;19925;-64
2022/10/29 09:49:11;;;;;;;;;;;20.50;99.90;;;;;;5031322;28;19925;-64
2022/10/29 09:51:47;;;;;;;;;;;20.40;99.90;;;;;;5030964;28;19924;-64
2022/10/29 09:54:15;;;;;;;;;;;20.40;99.90;;;;;;5028379;28;20351;-64
2022/10/29 09:56:43;;;;;;;;;;;20.40;99.90;;;;;;5031762;28;19932;-65
2022/10/29 09:59:18;;;;;;;;;;;20.40;99.90;;;;;;5031739;28;19928;-64
2022/10/29 10:01:46;;;;;;;;;;;20.40;99.90;;;;;;5028817;28;19925;-63
2022/10/29 10:04:27;;;;;;;;;;;20.40;99.90;;;;;;4999257;28;20407;-63
2022/10/29 10:07:15;;;;;;;;;;;20.40;99.90;;;;;;5030464;28;20385;-64
2022/10/29 10:09:58;;;;;;;;;;;20.40;99.90;;;;;;5027415;28;19925;-64
2022/10/29 10:12:27;;;;;;;;;;;20.40;99.90;;;;;;5003967;28;19929;-62
2022/10/29 10:15:05;;;;;;;;;;;20.40;99.90;;;;;;5012127;28;20388;-64
2022/10/29 10:17:51;;;;;;;;;;;20.40;99.90;;;;;;5010596;28;19921;-63
2022/10/29 10:20:27;;;;;;;;;;;20.40;99.90;;;;;;5028294;28;19978;-65
2022/10/29 10:22:55;;;;;;;;;;;20.40;99.90;;;;;;5025727;28;20273;-65
2022/10/29 10:25:34;;;;;;;;;;;20.40;99.90;;;;;;5008195;28;19967;-63
2022/10/29 10:28:03;;;;;;;;;;;20.30;99.90;;;;;;5026830;28;19921;-63
2022/10/29 10:30:30;;;;;;;;;;;20.30;99.90;;;;;;5030653;28;19932;-64
2022/10/29 10:33:09;;;;;;;;;;;20.30;99.90;;;;;;5012199;28;20313;-63
2022/10/29 10:35:37;;;;;;;;;;;20.40;99.90;;;;;;5028789;28;20000;-62
2022/10/29 10:38:08;;;;;;;;;;;20.40;99.90;;;;;;5028300;28;19932;-63
2022/10/29 10:40:36;;;;;;;;;;;20.40;99.90;;;;;;5026723;28;19929;-64
2022/10/29 10:43:03;;;;;;;;;;;20.40;99.90;;;;;;5013455;28;19932;-64
2022/10/29 10:45:36;;;;;;;;;;;20.40;99.90;;;;;;5029539;28;19921;-65
2022/10/29 10:48:07;;;;;;;;;;;20.40;99.90;;;;;;5028625;28;20404;-66
2022/10/29 10:50:35;;;;;;;;;;;20.40;99.90;;;;;;5027746;28;19944;-64
2022/10/29 10:53:04;;;;;;;;;;;20.30;99.90;;;;;;5028273;28;19928;-63
2022/10/29 10:55:32;;;;;;;;;;;20.40;99.90;;;;;;5032324;28;19940;-64
2022/10/29 10:58:08;;;;;;;;;;;20.30;99.90;;;;;;5027673;28;19924;-64
2022/10/29 11:00:41;;;;;;;;;;;20.40;99.90;;;;;;5023122;28;19921;-66
2022/10/29 11:03:18;;;;;;;;;;;20.30;99.90;;;;;;5030939;28;20048;-65
2022/10/29 11:05:53;;;;;;;;;;;20.30;99.90;;;;;;5034108;28;20311;-64
2022/10/29 11:08:23;;;;;;;;;;;20.40;99.90;;;;;;5032151;28;19985;-65
2022/10/29 11:10:59;;;;;;;;;;;20.40;99.90;;;;;;5039010;28;19925;-64
2022/10/29 11:13:28;;;;;;;;;;;20.30;99.90;;;;;;5033137;28;19925;-64
2022/10/29 11:16:13;;;;;;;;;;;20.30;99.90;;;;;;5038154;28;19921;-64
2022/10/29 11:18:43;;;;;;;;;;;20.30;99.90;;;;;;5026576;28;19925;-65
2022/10/29 11:21:10;;;;;;;;;;;20.30;99.90;;;;;;5028903;28;19928;-65
2022/10/29 11:23:56;;;;;;;;;;;20.30;99.90;;;;;;5027421;28;19932;-65
2022/10/29 11:26:42;;;;;;;;;;;20.30;99.90;;;;;;5030603;28;19928;-64
2022/10/29 11:29:25;;;;;;;;;;;20.30;99.90;;;;;;5030763;28;20418;-65
2022/10/29 11:31:53;;;;;;;;;;;20.30;99.90;;;;;;5028575;28;19932;-65
2022/10/29 11:34:22;;;;;;;;;;;20.30;99.90;;;;;;5029473;28;19948;-63
2022/10/29 11:36:56;;;;;;;;;;;20.30;99.90;;;;;;5033034;28;20387;-68
2022/10/29 11:39:33;;;;;;;;;;;20.30;99.90;;;;;;5030800;28;20230;-66
2022/10/29 11:42:00;;;;;;;;;;;20.30;99.90;;;;;;5031374;28;19952;-65
2022/10/29 11:44:29;;;;;;;;;;;20.30;99.90;;;;;;5027551;28;19929;-66
2022/10/29 11:47:34;;;;;;;;;;;20.30;99.90;;;;;;5028470;28;19944;-65
2022/10/29 11:50:09;;;;;;;;;;;20.30;99.90;;;;;;4986634;28;19933;-63
2022/10/29 11:52:47;;;;;;;;;;;20.30;99.90;;;;;;4989453;28;20688;-62
2022/10/29 11:55:22;;;;;;;;;;;20.30;99.90;;;;;;5011390;28;19993;-64
2022/10/29 11:58:00;;;;;;;;;;;20.30;99.90;;;;;;5001620;28;19922;-65
2022/10/29 12:00:33;;;;;;;;;;;20.30;99.90;;;;;;4997667;28;19936;-63
2022/10/29 12:03:15;;;;;;;;;;;20.30;99.90;;;;;;5005436;28;20350;-63
2022/10/29 12:05:44;;;;;;;;;;;20.30;99.90;;;;;;4995406;28;20481;-62
2022/10/29 12:08:14;;;;;;;;;;;20.30;99.90;;;;;;5003891;28;19925;-63
2022/10/29 12:10:50;;;;;;;;;;;20.30;99.90;;;;;;4989071;28;19994;-65
2022/10/29 12:13:31;;;;;;;;;;;20.30;99.90;;;;;;4994679;28;19921;-63
2022/10/29 12:15:58;;;;;;;;;;;20.30;99.90;;;;;;4990917;28;19933;-63
2022/10/29 12:18:30;;;;;;;;;;;20.20;99.90;;;;;;4989831;28;19937;-62
2022/10/29 12:20:57;;;;;;;;;;;20.20;99.90;;;;;;5011647;28;19947;-63
2022/10/29 12:23:34;;;;;;;;;;;20.20;99.90;;;;;;5013121;28;19925;-64
2022/10/29 12:26:08;;;;;;;;;;;20.20;99.90;;;;;;5031931;28;19925;-63
2022/10/29 12:28:54;;;;;;;;;;;20.20;99.90;;;;;;5010625;28;19933;-64
2022/10/29 12:31:44;;;;;;;;;;;20.20;99.90;;;;;;5030752;28;19925;-63
2022/10/29 12:34:22;;;;;;;;;;;20.20;99.90;;;;;;5027270;28;20321;-63
2022/10/29 12:36:55;;;;;;;;;;;20.20;99.90;;;;;;5014836;28;20284;-63
2022/10/29 12:39:29;;;;;;;;;;;20.20;99.90;;;;;;5032785;28;19928;-64
2022/10/29 12:42:01;;;;;;;;;;;20.20;99.90;;;;;;5030639;28;19924;-63
2022/10/29 12:44:50;;;;;;;;;;;20.20;99.90;;;;;;5018078;28;19921;-64
2022/10/29 12:47:22;;;;;;;;;;;20.20;99.90;;;;;;5001564;28;19921;-63
2022/10/29 12:49:58;;;;;;;;;;;20.20;99.90;;;;;;5031515;28;19921;-65
2022/10/29 12:52:31;;;;;;;;;;;20.20;99.90;;;;;;5029895;28;19920;-62
2022/10/29 12:54:59;;;;;;;;;;;20.20;99.90;;;;;;5007490;28;19928;-63
2022/10/29 12:57:31;;;;;;;;;;;20.20;99.90;;;;;;5031478;28;19936;-63
2022/10/29 13:00:17;;;;;;;;;;;20.20;99.90;;;;;;5032057;28;19928;-63
2022/10/29 13:02:44;;;;;;;;;;;20.20;99.90;;;;;;5023562;28;20378;-63
2022/10/29 13:05:13;;;;;;;;;;;20.20;99.90;;;;;;5009989;28;19929;-62
2022/10/29 13:07:45;;;;;;;;;;;20.20;99.90;;;;;;5030352;28;19921;-65
2022/10/29 13:10:22;;;;;;;;;;;20.20;99.90;;;;;;5030395;28;19925;-64
2022/10/29 13:12:52;;;;;;;;;;;20.20;99.90;;;;;;5029929;28;20300;-63
2022/10/29 13:15:20;;;;;;;;;;;20.20;99.90;;;;;;5015367;28;19925;-61
2022/10/29 13:17:48;;;;;;;;;;;20.20;99.90;;;;;;5030122;28;19956;-63
2022/10/29 13:20:24;;;;;;;;;;;20.20;99.90;;;;;;5028862;28;19925;-61
2022/10/29 13:22:54;;;;;;;;;;;20.10;99.90;;;;;;5024504;28;19948;-61
2022/10/29 13:25:36;;;;;;;;;;;20.10;99.90;;;;;;5029865;28;19929;-62
2022/10/29 13:28:06;;;;;;;;;;;20.10;99.90;;;;;;5029796;28;19925;-63
2022/10/29 13:30:38;;;;;;;;;;;20.20;99.90;;;;;;5030657;28;20301;-62
2022/10/29 13:33:23;;;;;;;;;;;20.20;99.90;;;;;;5029154;28;19944;-62
2022/10/29 13:35:51;;;;;;;;;;;20.10;99.90;;;;;;5028879;28;19936;-63
2022/10/29 13:38:18;;;;;;;;;;;20.10;99.90;;;;;;5029754;28;19925;-63
2022/10/29 13:40:54;;;;;;;;;;;20.20;99.90;;;;;;5031619;28;19925;-61
2022/10/29 13:43:22;;;;;;;;;;;20.20;99.90;;;;;;5029779;28;20320;-62
2022/10/29 13:45:51;;;;;;;;;;;20.20;99.90;;;;;;5036551;28;19921;-62
2022/10/29 13:48:24;;;;;;;;;;;20.20;99.90;;;;;;5030278;28;19925;-62
2022/10/29 13:50:53;;;;;;;;;;;20.10;99.90;;;;;;5024003;28;20787;-61
2022/10/29 13:53:24;;;;;;;;;;;20.20;99.90;;;;;;5028949;28;19928;-62
2022/10/29 13:55:51;;;;;;;;;;;20.20;99.90;;;;;;5028675;28;20427;-58
2022/10/29 13:58:29;;;;;;;;;;;20.20;99.90;;;;;;5028963;28;19940;-61
2022/10/29 14:00:56;;;;;;;;;;;20.20;99.90;;;;;;5027115;28;20393;-63
2022/10/29 14:03:33;;;;;;;;;;;20.10;99.90;;;;;;5026355;28;19929;-65
2022/10/29 14:06:17;;;;;;;;;;;20.10;99.90;;;;;;5029693;28;19936;-63
2022/10/29 14:08:54;;;;;;;;;;;20.20;99.90;;;;;;5025411;28;19936;-64
2022/10/29 14:11:34;;;;;;;;;;;20.10;99.90;;;;;;5039683;28;19929;-62
2022/10/29 14:14:03;;;;;;;;;;;20.20;99.90;;;;;;5028690;28;19936;-62
2022/10/29 14:16:33;;;;;;;;;;;20.20;99.90;;;;;;5031388;28;19925;-63
2022/10/29 14:19:17;;;;;;;;;;;20.20;99.90;;;;;;5024715;28;20385;-64
2022/10/29 14:21:44;;;;;;;;;;;20.20;99.90;;;;;;5023188;28;20404;-63
2022/10/29 14:24:13;;;;;;;;;;;20.20;99.90;;;;;;5032055;28;19929;-63
2022/10/29 14:26:41;;;;;;;;;;;20.20;99.90;;;;;;5028776;28;19945;-64
2022/10/29 14:29:11;;;;;;;;;;;20.20;99.90;;;;;;5028870;28;19921;-62
2022/10/29 14:31:38;;;;;;;;;;;20.20;99.90;;;;;;4992307;28;19940;-62
2022/10/29 14:34:20;;;;;;;;;;;20.20;99.90;;;;;;5027331;28;19925;-63
2022/10/29 14:36:49;;;;;;;;;;;20.10;99.90;;;;;;5027795;28;20319;-61